Articles

Rainfall Radar

Share
 
 
Share

Trim Flying Club goes to the Aran Islands

Learn to fly at Trim Flying Club

Rainfall Radar Now

Atlantic Charts Pressure - Today

Atlantic Charts Rainfall - Today

 
 

Atlantic Charts Pressure - Tomorrow

Sunrise Sunset

Click for Dublin, Ireland Forecast

Aviation WX Dublin EIDW

[source: ADDS]
METAR
EIDW 281500Z 21019KT 9999 SCT025 19/09 Q1003 NOSIG =
TAF
TAF EIDW 281100Z 2812/2912 22016KT 9999 SCT020 BECMG 2812/2814 19016G26KT TEMPO 2812/2816 SHRA SCT018CB BECMG 2814/2817 19018G32KT PROB30 TEMPO 2816/2822 SHRA SCT018CB TEMPO 2822/2905 4000 RA BKN013 SCT018CB BECMG 2900/2902 22020G33KT BECMG 2904/2907 23017G28KT TEMPO 2908/2912 5000 -RA BKN015 PROB30 TEMPO 2909/2912 4000 SHRA BKN012 SCT018CB =